sensor_id;sensor_type;location;lat;lon;timestamp;P1;durP1;ratioP1;P2;durP2;ratioP2
45136;SDS011;30894;51.740;19.498;2023-07-24T00:00:16;3.38;;;1.95;;
45136;SDS011;30894;51.740;19.498;2023-07-24T00:03:03;4.07;;;2.00;;
45136;SDS011;30894;51.740;19.498;2023-07-24T00:05:29;5.22;;;2.10;;
45136;SDS011;30894;51.740;19.498;2023-07-24T00:07:56;4.32;;;2.28;;
45136;SDS011;30894;51.740;19.498;2023-07-24T00:10:22;4.22;;;2.33;;
45136;SDS011;30894;51.740;19.498;2023-07-24T00:12:48;3.25;;;2.00;;
45136;SDS011;30894;51.740;19.498;2023-07-24T00:15:14;6.88;;;1.67;;
45136;SDS011;30894;51.740;19.498;2023-07-24T00:17:41;5.30;;;1.85;;
45136;SDS011;30894;51.740;19.498;2023-07-24T00:20:07;7.43;;;2.30;;
45136;SDS011;30894;51.740;19.498;2023-07-24T00:22:34;4.68;;;2.28;;
45136;SDS011;30894;51.740;19.498;2023-07-24T00:25:00;4.57;;;2.40;;
45136;SDS011;30894;51.740;19.498;2023-07-24T00:27:26;3.45;;;1.80;;
45136;SDS011;30894;51.740;19.498;2023-07-24T00:29:52;2.67;;;1.70;;
45136;SDS011;30894;51.740;19.498;2023-07-24T00:32:19;4.47;;;2.13;;
45136;SDS011;30894;51.740;19.498;2023-07-24T00:34:45;5.10;;;1.88;;
45136;SDS011;30894;51.740;19.498;2023-07-24T00:37:11;3.65;;;1.98;;
45136;SDS011;30894;51.740;19.498;2023-07-24T00:39:37;3.15;;;1.88;;
45136;SDS011;30894;51.740;19.498;2023-07-24T00:42:03;5.60;;;2.05;;
45136;SDS011;30894;51.740;19.498;2023-07-24T00:44:29;5.20;;;2.15;;
45136;SDS011;30894;51.740;19.498;2023-07-24T00:46:56;4.60;;;2.10;;
45136;SDS011;30894;51.740;19.498;2023-07-24T00:49:22;5.90;;;2.25;;
45136;SDS011;30894;51.740;19.498;2023-07-24T00:51:48;3.00;;;1.77;;
45136;SDS011;30894;51.740;19.498;2023-07-24T00:54:15;2.88;;;1.80;;
45136;SDS011;30894;51.740;19.498;2023-07-24T00:56:43;3.45;;;1.95;;
45136;SDS011;30894;51.740;19.498;2023-07-24T00:59:12;4.88;;;2.33;;
45136;SDS011;30894;51.740;19.498;2023-07-24T01:01:38;8.75;;;2.25;;
45136;SDS011;30894;51.740;19.498;2023-07-24T01:04:07;4.03;;;2.25;;
45136;SDS011;30894;51.740;19.498;2023-07-24T01:06:34;4.55;;;2.35;;
45136;SDS011;30894;51.740;19.498;2023-07-24T01:09:00;3.90;;;2.22;;
45136;SDS011;30894;51.740;19.498;2023-07-24T01:11:27;3.47;;;1.90;;
45136;SDS011;30894;51.740;19.498;2023-07-24T01:14:09;5.22;;;2.50;;
45136;SDS011;30894;51.740;19.498;2023-07-24T01:16:45;4.82;;;2.33;;
45136;SDS011;30894;51.740;19.498;2023-07-24T01:19:22;6.60;;;2.45;;
45136;SDS011;30894;51.740;19.498;2023-07-24T01:22:14;8.82;;;2.55;;
45136;SDS011;30894;51.740;19.498;2023-07-24T01:25:17;4.80;;;2.25;;
45136;SDS011;30894;51.740;19.498;2023-07-24T01:28:01;6.57;;;2.72;;
45136;SDS011;30894;51.740;19.498;2023-07-24T01:30:36;4.82;;;2.20;;
45136;SDS011;30894;51.740;19.498;2023-07-24T01:33:02;9.60;;;2.38;;
45136;SDS011;30894;51.740;19.498;2023-07-24T01:35:28;5.18;;;2.10;;
45136;SDS011;30894;51.740;19.498;2023-07-24T01:37:56;4.53;;;2.00;;
45136;SDS011;30894;51.740;19.498;2023-07-24T01:40:22;6.95;;;2.25;;
45136;SDS011;30894;51.740;19.498;2023-07-24T01:42:49;4.95;;;2.42;;
45136;SDS011;30894;51.740;19.498;2023-07-24T01:45:16;5.82;;;2.42;;
45136;SDS011;30894;51.740;19.498;2023-07-24T01:47:42;4.80;;;2.30;;
45136;SDS011;30894;51.740;19.498;2023-07-24T01:50:08;5.15;;;2.42;;
45136;SDS011;30894;51.740;19.498;2023-07-24T01:52:35;3.72;;;2.22;;
45136;SDS011;30894;51.740;19.498;2023-07-24T01:55:01;3.85;;;2.28;;
45136;SDS011;30894;51.740;19.498;2023-07-24T01:57:28;5.25;;;2.33;;
45136;SDS011;30894;51.740;19.498;2023-07-24T01:59:54;5.60;;;2.10;;
45136;SDS011;30894;51.740;19.498;2023-07-24T02:02:20;10.15;;;2.50;;
45136;SDS011;30894;51.740;19.498;2023-07-24T02:04:46;5.47;;;2.35;;
45136;SDS011;30894;51.740;19.498;2023-07-24T02:07:13;3.13;;;2.03;;
45136;SDS011;30894;51.740;19.498;2023-07-24T02:09:39;5.85;;;2.20;;
45136;SDS011;30894;51.740;19.498;2023-07-24T02:12:05;4.90;;;2.53;;
45136;SDS011;30894;51.740;19.498;2023-07-24T02:14:31;4.53;;;2.45;;
45136;SDS011;30894;51.740;19.498;2023-07-24T02:17:01;4.40;;;2.05;;
45136;SDS011;30894;51.740;19.498;2023-07-24T02:19:27;3.85;;;2.17;;
45136;SDS011;30894;51.740;19.498;2023-07-24T02:21:53;3.95;;;1.95;;
45136;SDS011;30894;51.740;19.498;2023-07-24T02:24:19;5.13;;;2.40;;
45136;SDS011;30894;51.740;19.498;2023-07-24T02:26:46;3.13;;;1.90;;
45136;SDS011;30894;51.740;19.498;2023-07-24T02:29:14;3.72;;;2.42;;
45136;SDS011;30894;51.740;19.498;2023-07-24T02:31:41;6.60;;;2.10;;
45136;SDS011;30894;51.740;19.498;2023-07-24T02:34:08;8.98;;;2.63;;
45136;SDS011;30894;51.740;19.498;2023-07-24T02:36:34;5.22;;;2.20;;
45136;SDS011;30894;51.740;19.498;2023-07-24T02:39:00;7.85;;;2.53;;
45136;SDS011;30894;51.740;19.498;2023-07-24T02:41:26;5.95;;;2.17;;
45136;SDS011;30894;51.740;19.498;2023-07-24T02:43:52;5.90;;;2.20;;
45136;SDS011;30894;51.740;19.498;2023-07-24T02:46:18;7.47;;;2.30;;
45136;SDS011;30894;51.740;19.498;2023-07-24T02:48:44;5.97;;;2.28;;
45136;SDS011;30894;51.740;19.498;2023-07-24T02:51:11;4.00;;;2.28;;
45136;SDS011;30894;51.740;19.498;2023-07-24T02:53:37;7.30;;;2.90;;
45136;SDS011;30894;51.740;19.498;2023-07-24T02:56:04;4.70;;;2.30;;
45136;SDS011;30894;51.740;19.498;2023-07-24T02:58:30;5.20;;;2.30;;
45136;SDS011;30894;51.740;19.498;2023-07-24T03:01:06;5.32;;;2.40;;
45136;SDS011;30894;51.740;19.498;2023-07-24T03:03:34;5.22;;;2.20;;
45136;SDS011;30894;51.740;19.498;2023-07-24T03:06:00;4.07;;;2.20;;
45136;SDS011;30894;51.740;19.498;2023-07-24T03:08:26;8.20;;;2.85;;
45136;SDS011;30894;51.740;19.498;2023-07-24T03:10:53;4.57;;;2.70;;
45136;SDS011;30894;51.740;19.498;2023-07-24T03:13:18;5.53;;;2.92;;
45136;SDS011;30894;51.740;19.498;2023-07-24T03:15:51;7.15;;;2.80;;
45136;SDS011;30894;51.740;19.498;2023-07-24T03:18:19;3.85;;;2.25;;
45136;SDS011;30894;51.740;19.498;2023-07-24T03:20:46;5.82;;;2.30;;
45136;SDS011;30894;51.740;19.498;2023-07-24T03:23:12;3.67;;;2.15;;
45136;SDS011;30894;51.740;19.498;2023-07-24T03:25:38;6.43;;;2.60;;
45136;SDS011;30894;51.740;19.498;2023-07-24T03:28:04;6.65;;;2.08;;
45136;SDS011;30894;51.740;19.498;2023-07-24T03:30:31;3.03;;;1.95;;
45136;SDS011;30894;51.740;19.498;2023-07-24T03:32:57;3.45;;;2.10;;
45136;SDS011;30894;51.740;19.498;2023-07-24T03:35:23;4.93;;;2.53;;
45136;SDS011;30894;51.740;19.498;2023-07-24T03:37:50;4.25;;;2.13;;
45136;SDS011;30894;51.740;19.498;2023-07-24T03:40:16;5.78;;;2.20;;
45136;SDS011;30894;51.740;19.498;2023-07-24T03:42:42;2.58;;;2.20;;
45136;SDS011;30894;51.740;19.498;2023-07-24T03:45:08;4.40;;;1.98;;
45136;SDS011;30894;51.740;19.498;2023-07-24T03:47:35;4.35;;;2.20;;
45136;SDS011;30894;51.740;19.498;2023-07-24T03:50:00;4.22;;;2.40;;
45136;SDS011;30894;51.740;19.498;2023-07-24T03:52:27;3.60;;;2.15;;
45136;SDS011;30894;51.740;19.498;2023-07-24T03:54:53;3.67;;;2.05;;
45136;SDS011;30894;51.740;19.498;2023-07-24T03:57:19;6.88;;;2.72;;
45136;SDS011;30894;51.740;19.498;2023-07-24T03:59:46;3.15;;;2.03;;
45136;SDS011;30894;51.740;19.498;2023-07-24T04:02:12;5.65;;;2.08;;
45136;SDS011;30894;51.740;19.498;2023-07-24T04:04:38;3.15;;;2.22;;
45136;SDS011;30894;51.740;19.498;2023-07-24T04:07:04;4.40;;;2.25;;
45136;SDS011;30894;51.740;19.498;2023-07-24T04:09:31;7.00;;;2.65;;
45136;SDS011;30894;51.740;19.498;2023-07-24T04:11:57;3.35;;;2.28;;
45136;SDS011;30894;51.740;19.498;2023-07-24T04:14:23;4.85;;;2.45;;
45136;SDS011;30894;51.740;19.498;2023-07-24T04:16:49;4.13;;;2.20;;
45136;SDS011;30894;51.740;19.498;2023-07-24T04:19:15;10.18;;;2.67;;
45136;SDS011;30894;51.740;19.498;2023-07-24T04:21:42;3.80;;;1.63;;
45136;SDS011;30894;51.740;19.498;2023-07-24T04:24:08;6.25;;;2.40;;
45136;SDS011;30894;51.740;19.498;2023-07-24T04:26:34;6.18;;;2.20;;
45136;SDS011;30894;51.740;19.498;2023-07-24T04:29:00;5.28;;;2.35;;
45136;SDS011;30894;51.740;19.498;2023-07-24T04:31:27;5.28;;;1.98;;
45136;SDS011;30894;51.740;19.498;2023-07-24T04:33:53;9.68;;;2.53;;
45136;SDS011;30894;51.740;19.498;2023-07-24T04:36:19;4.70;;;1.92;;
45136;SDS011;30894;51.740;19.498;2023-07-24T04:38:45;3.08;;;1.70;;
45136;SDS011;30894;51.740;19.498;2023-07-24T04:41:12;5.25;;;2.25;;
45136;SDS011;30894;51.740;19.498;2023-07-24T04:43:38;4.75;;;1.75;;
45136;SDS011;30894;51.740;19.498;2023-07-24T04:46:05;5.53;;;2.30;;
45136;SDS011;30894;51.740;19.498;2023-07-24T04:48:31;4.82;;;2.50;;
45136;SDS011;30894;51.740;19.498;2023-07-24T04:50:57;3.58;;;1.98;;
45136;SDS011;30894;51.740;19.498;2023-07-24T04:53:23;9.05;;;2.38;;
45136;SDS011;30894;51.740;19.498;2023-07-24T04:55:49;6.63;;;2.00;;
45136;SDS011;30894;51.740;19.498;2023-07-24T04:58:19;4.93;;;2.58;;
45136;SDS011;30894;51.740;19.498;2023-07-24T05:00:46;4.25;;;2.45;;
45136;SDS011;30894;51.740;19.498;2023-07-24T05:03:12;4.60;;;1.98;;
45136;SDS011;30894;51.740;19.498;2023-07-24T05:05:38;5.55;;;2.13;;
45136;SDS011;30894;51.740;19.498;2023-07-24T05:08:04;5.15;;;2.28;;
45136;SDS011;30894;51.740;19.498;2023-07-24T05:10:34;6.28;;;2.45;;
45136;SDS011;30894;51.740;19.498;2023-07-24T05:13:01;5.75;;;2.03;;
45136;SDS011;30894;51.740;19.498;2023-07-24T05:15:27;7.35;;;2.40;;
45136;SDS011;30894;51.740;19.498;2023-07-24T05:17:54;4.57;;;2.00;;
45136;SDS011;30894;51.740;19.498;2023-07-24T05:20:20;3.40;;;2.08;;
45136;SDS011;30894;51.740;19.498;2023-07-24T05:22:46;3.75;;;2.08;;
45136;SDS011;30894;51.740;19.498;2023-07-24T05:25:12;3.22;;;2.08;;
45136;SDS011;30894;51.740;19.498;2023-07-24T05:27:38;3.78;;;2.00;;
45136;SDS011;30894;51.740;19.498;2023-07-24T05:30:05;2.85;;;1.92;;
45136;SDS011;30894;51.740;19.498;2023-07-24T05:32:32;4.28;;;2.08;;
45136;SDS011;30894;51.740;19.498;2023-07-24T05:34:58;3.95;;;1.75;;
45136;SDS011;30894;51.740;19.498;2023-07-24T05:37:24;3.58;;;1.70;;
45136;SDS011;30894;51.740;19.498;2023-07-24T05:39:50;3.70;;;1.90;;
45136;SDS011;30894;51.740;19.498;2023-07-24T05:42:16;3.78;;;1.70;;
45136;SDS011;30894;51.740;19.498;2023-07-24T05:44:42;4.80;;;2.03;;
45136;SDS011;30894;51.740;19.498;2023-07-24T05:47:08;4.32;;;2.03;;
45136;SDS011;30894;51.740;19.498;2023-07-24T05:49:35;2.42;;;1.73;;
45136;SDS011;30894;51.740;19.498;2023-07-24T05:52:01;3.42;;;1.60;;
45136;SDS011;30894;51.740;19.498;2023-07-24T05:54:27;4.97;;;1.70;;
45136;SDS011;30894;51.740;19.498;2023-07-24T05:56:53;3.83;;;1.90;;
45136;SDS011;30894;51.740;19.498;2023-07-24T05:59:20;2.83;;;1.60;;
45136;SDS011;30894;51.740;19.498;2023-07-24T06:01:46;3.78;;;1.42;;
45136;SDS011;30894;51.740;19.498;2023-07-24T06:04:13;3.65;;;1.83;;
45136;SDS011;30894;51.740;19.498;2023-07-24T06:06:38;2.25;;;1.48;;
45136;SDS011;30894;51.740;19.498;2023-07-24T06:09:06;3.65;;;1.60;;
45136;SDS011;30894;51.740;19.498;2023-07-24T06:11:32;4.43;;;1.92;;
45136;SDS011;30894;51.740;19.498;2023-07-24T06:13:58;2.42;;;1.52;;
45136;SDS011;30894;51.740;19.498;2023-07-24T06:16:27;2.05;;;1.48;;
45136;SDS011;30894;51.740;19.498;2023-07-24T06:18:53;3.15;;;1.60;;
45136;SDS011;30894;51.740;19.498;2023-07-24T06:21:20;4.05;;;1.50;;
45136;SDS011;30894;51.740;19.498;2023-07-24T06:23:46;3.72;;;1.50;;
45136;SDS011;30894;51.740;19.498;2023-07-24T06:26:12;3.03;;;1.65;;
45136;SDS011;30894;51.740;19.498;2023-07-24T06:28:38;2.80;;;1.42;;
45136;SDS011;30894;51.740;19.498;2023-07-24T06:31:05;2.75;;;1.70;;
45136;SDS011;30894;51.740;19.498;2023-07-24T06:33:34;3.38;;;1.83;;
45136;SDS011;30894;51.740;19.498;2023-07-24T06:36:00;3.60;;;1.80;;
45136;SDS011;30894;51.740;19.498;2023-07-24T06:38:26;4.63;;;1.73;;
45136;SDS011;30894;51.740;19.498;2023-07-24T06:40:52;6.07;;;1.67;;
45136;SDS011;30894;51.740;19.498;2023-07-24T06:43:20;1.65;;;1.35;;
45136;SDS011;30894;51.740;19.498;2023-07-24T06:45:47;3.15;;;1.33;;
45136;SDS011;30894;51.740;19.498;2023-07-24T06:48:13;2.97;;;1.55;;
45136;SDS011;30894;51.740;19.498;2023-07-24T06:50:39;4.10;;;1.67;;
45136;SDS011;30894;51.740;19.498;2023-07-24T06:53:06;2.35;;;0.98;;
45136;SDS011;30894;51.740;19.498;2023-07-24T06:55:32;3.53;;;1.17;;
45136;SDS011;30894;51.740;19.498;2023-07-24T06:57:58;3.60;;;1.30;;
45136;SDS011;30894;51.740;19.498;2023-07-24T07:00:24;1.85;;;1.25;;
45136;SDS011;30894;51.740;19.498;2023-07-24T07:02:51;3.72;;;1.42;;
45136;SDS011;30894;51.740;19.498;2023-07-24T07:05:18;3.80;;;1.13;;
45136;SDS011;30894;51.740;19.498;2023-07-24T07:07:45;2.40;;;1.20;;
45136;SDS011;30894;51.740;19.498;2023-07-24T07:10:11;3.47;;;1.30;;
45136;SDS011;30894;51.740;19.498;2023-07-24T07:12:37;2.75;;;1.40;;
45136;SDS011;30894;51.740;19.498;2023-07-24T07:15:03;1.73;;;1.05;;
45136;SDS011;30894;51.740;19.498;2023-07-24T07:17:30;1.60;;;1.13;;
45136;SDS011;30894;51.740;19.498;2023-07-24T07:19:56;2.17;;;1.23;;
45136;SDS011;30894;51.740;19.498;2023-07-24T07:22:25;2.50;;;1.00;;
45136;SDS011;30894;51.740;19.498;2023-07-24T07:24:52;1.50;;;1.00;;
45136;SDS011;30894;51.740;19.498;2023-07-24T07:27:18;4.68;;;1.20;;
45136;SDS011;30894;51.740;19.498;2023-07-24T07:29:44;2.45;;;1.35;;
45136;SDS011;30894;51.740;19.498;2023-07-24T07:32:12;2.42;;;1.20;;
45136;SDS011;30894;51.740;19.498;2023-07-24T07:34:44;2.33;;;1.10;;
45136;SDS011;30894;51.740;19.498;2023-07-24T07:37:14;3.88;;;1.30;;
45136;SDS011;30894;51.740;19.498;2023-07-24T07:39:41;5.00;;;1.17;;
45136;SDS011;30894;51.740;19.498;2023-07-24T07:42:07;2.47;;;1.17;;
45136;SDS011;30894;51.740;19.498;2023-07-24T07:44:33;4.15;;;1.60;;
45136;SDS011;30894;51.740;19.498;2023-07-24T07:47:00;2.38;;;1.30;;
45136;SDS011;30894;51.740;19.498;2023-07-24T07:49:25;3.00;;;1.08;;
45136;SDS011;30894;51.740;19.498;2023-07-24T07:51:52;2.28;;;1.23;;
45136;SDS011;30894;51.740;19.498;2023-07-24T07:54:21;2.20;;;1.17;;
45136;SDS011;30894;51.740;19.498;2023-07-24T07:56:48;3.95;;;1.00;;
45136;SDS011;30894;51.740;19.498;2023-07-24T07:59:18;2.45;;;1.42;;
45136;SDS011;30894;51.740;19.498;2023-07-24T08:01:44;1.67;;;1.13;;
45136;SDS011;30894;51.740;19.498;2023-07-24T08:04:11;1.63;;;1.42;;
45136;SDS011;30894;51.740;19.498;2023-07-24T08:06:46;2.22;;;1.23;;
45136;SDS011;30894;51.740;19.498;2023-07-24T08:09:17;4.32;;;1.25;;
45136;SDS011;30894;51.740;19.498;2023-07-24T08:11:47;6.35;;;1.60;;
45136;SDS011;30894;51.740;19.498;2023-07-24T08:14:17;2.70;;;1.50;;
45136;SDS011;30894;51.740;19.498;2023-07-24T08:16:44;4.10;;;1.63;;
45136;SDS011;30894;51.740;19.498;2023-07-24T08:19:16;2.33;;;1.20;;
45136;SDS011;30894;51.740;19.498;2023-07-24T08:21:48;2.22;;;1.60;;
45136;SDS011;30894;51.740;19.498;2023-07-24T08:24:14;3.25;;;1.30;;
45136;SDS011;30894;51.740;19.498;2023-07-24T08:26:42;5.60;;;1.60;;
45136;SDS011;30894;51.740;19.498;2023-07-24T08:29:08;2.10;;;1.30;;
45136;SDS011;30894;51.740;19.498;2023-07-24T08:31:35;2.08;;;1.30;;
45136;SDS011;30894;51.740;19.498;2023-07-24T08:34:01;7.13;;;1.38;;
45136;SDS011;30894;51.740;19.498;2023-07-24T08:36:27;2.25;;;0.95;;
45136;SDS011;30894;51.740;19.498;2023-07-24T08:38:54;3.95;;;1.30;;
45136;SDS011;30894;51.740;19.498;2023-07-24T08:41:21;4.80;;;1.45;;
45136;SDS011;30894;51.740;19.498;2023-07-24T08:43:47;3.17;;;1.58;;
45136;SDS011;30894;51.740;19.498;2023-07-24T08:46:16;2.10;;;1.50;;
45136;SDS011;30894;51.740;19.498;2023-07-24T08:48:46;5.97;;;1.70;;
45136;SDS011;30894;51.740;19.498;2023-07-24T08:51:14;2.65;;;1.58;;
45136;SDS011;30894;51.740;19.498;2023-07-24T08:53:45;4.10;;;1.90;;
45136;SDS011;30894;51.740;19.498;2023-07-24T08:56:13;4.07;;;1.60;;
45136;SDS011;30894;51.740;19.498;2023-07-24T08:58:40;3.30;;;1.58;;
45136;SDS011;30894;51.740;19.498;2023-07-24T09:01:11;3.47;;;1.70;;
45136;SDS011;30894;51.740;19.498;2023-07-24T09:03:40;5.00;;;1.70;;
45136;SDS011;30894;51.740;19.498;2023-07-24T09:06:07;2.75;;;1.73;;
45136;SDS011;30894;51.740;19.498;2023-07-24T09:11:05;3.47;;;1.70;;
45136;SDS011;30894;51.740;19.498;2023-07-24T09:13:37;3.15;;;1.60;;
45136;SDS011;30894;51.740;19.498;2023-07-24T09:16:29;4.68;;;1.70;;
45136;SDS011;30894;51.740;19.498;2023-07-24T09:19:29;2.67;;;1.60;;
45136;SDS011;30894;51.740;19.498;2023-07-24T09:21:56;4.75;;;1.40;;
45136;SDS011;30894;51.740;19.498;2023-07-24T09:24:37;6.28;;;1.52;;
45136;SDS011;30894;51.740;19.498;2023-07-24T09:27:17;3.65;;;1.63;;
45136;SDS011;30894;51.740;19.498;2023-07-24T09:29:45;4.45;;;1.63;;
45136;SDS011;30894;51.740;19.498;2023-07-24T09:32:19;2.67;;;1.30;;
45136;SDS011;30894;51.740;19.498;2023-07-24T09:34:50;5.75;;;1.65;;
45136;SDS011;30894;51.740;19.498;2023-07-24T09:37:25;3.60;;;1.27;;
45136;SDS011;30894;51.740;19.498;2023-07-24T09:40:03;2.53;;;1.30;;
45136;SDS011;30894;51.740;19.498;2023-07-24T09:42:31;6.53;;;1.60;;
45136;SDS011;30894;51.740;19.498;2023-07-24T09:44:59;2.85;;;1.45;;
45136;SDS011;30894;51.740;19.498;2023-07-24T09:47:31;2.80;;;1.73;;
45136;SDS011;30894;51.740;19.498;2023-07-24T09:49:59;3.40;;;2.00;;
45136;SDS011;30894;51.740;19.498;2023-07-24T09:52:33;3.38;;;1.60;;
45136;SDS011;30894;51.740;19.498;2023-07-24T09:57:50;2.30;;;1.83;;
45136;SDS011;30894;51.740;19.498;2023-07-24T10:00:25;2.42;;;1.60;;
45136;SDS011;30894;51.740;19.498;2023-07-24T10:02:51;2.90;;;1.73;;
45136;SDS011;30894;51.740;19.498;2023-07-24T10:05:18;3.88;;;1.50;;
45136;SDS011;30894;51.740;19.498;2023-07-24T10:07:51;3.78;;;2.17;;
45136;SDS011;30894;51.740;19.498;2023-07-24T10:10:18;3.55;;;1.88;;
45136;SDS011;30894;51.740;19.498;2023-07-24T10:12:48;2.88;;;1.83;;
45136;SDS011;30894;51.740;19.498;2023-07-24T10:15:15;3.22;;;1.80;;
45136;SDS011;30894;51.740;19.498;2023-07-24T10:17:45;2.50;;;1.85;;
45136;SDS011;30894;51.740;19.498;2023-07-24T10:20:11;3.00;;;2.00;;
45136;SDS011;30894;51.740;19.498;2023-07-24T10:22:40;2.83;;;1.70;;
45136;SDS011;30894;51.740;19.498;2023-07-24T10:25:08;8.88;;;1.83;;
45136;SDS011;30894;51.740;19.498;2023-07-24T10:27:44;2.88;;;1.92;;
45136;SDS011;30894;51.740;19.498;2023-07-24T10:30:12;3.58;;;1.50;;
45136;SDS011;30894;51.740;19.498;2023-07-24T10:32:46;4.72;;;1.85;;
45136;SDS011;30894;51.740;19.498;2023-07-24T10:35:15;2.80;;;1.98;;
45136;SDS011;30894;51.740;19.498;2023-07-24T10:37:46;3.47;;;2.13;;
45136;SDS011;30894;51.740;19.498;2023-07-24T10:40:20;4.57;;;1.92;;
45136;SDS011;30894;51.740;19.498;2023-07-24T10:42:58;3.40;;;2.10;;
45136;SDS011;30894;51.740;19.498;2023-07-24T10:45:41;2.93;;;1.77;;
45136;SDS011;30894;51.740;19.498;2023-07-24T10:48:16;3.45;;;1.83;;
45136;SDS011;30894;51.740;19.498;2023-07-24T10:50:45;3.90;;;1.73;;
45136;SDS011;30894;51.740;19.498;2023-07-24T10:53:15;2.97;;;1.90;;
45136;SDS011;30894;51.740;19.498;2023-07-24T10:55:44;3.40;;;1.60;;
45136;SDS011;30894;51.740;19.498;2023-07-24T10:58:19;3.72;;;1.88;;
45136;SDS011;30894;51.740;19.498;2023-07-24T11:00:53;4.00;;;1.60;;
45136;SDS011;30894;51.740;19.498;2023-07-24T11:03:19;2.75;;;1.63;;
45136;SDS011;30894;51.740;19.498;2023-07-24T11:05:46;3.80;;;1.80;;
45136;SDS011;30894;51.740;19.498;2023-07-24T11:08:17;1.60;;;1.50;;
45136;SDS011;30894;51.740;19.498;2023-07-24T11:10:46;4.82;;;1.90;;
45136;SDS011;30894;51.740;19.498;2023-07-24T11:13:24;4.32;;;2.10;;
45136;SDS011;30894;51.740;19.498;2023-07-24T11:15:53;2.58;;;1.40;;
45136;SDS011;30894;51.740;19.498;2023-07-24T11:18:23;3.83;;;2.03;;
45136;SDS011;30894;51.740;19.498;2023-07-24T11:20:52;4.13;;;1.95;;
45136;SDS011;30894;51.740;19.498;2023-07-24T11:23:22;5.47;;;1.70;;
45136;SDS011;30894;51.740;19.498;2023-07-24T11:25:52;3.55;;;1.80;;
45136;SDS011;30894;51.740;19.498;2023-07-24T11:28:19;2.92;;;1.52;;
45136;SDS011;30894;51.740;19.498;2023-07-24T11:31:01;7.47;;;2.17;;
45136;SDS011;30894;51.740;19.498;2023-07-24T11:33:39;3.70;;;2.03;;
45136;SDS011;30894;51.740;19.498;2023-07-24T11:36:09;2.80;;;1.65;;
45136;SDS011;30894;51.740;19.498;2023-07-24T11:38:44;1.85;;;1.30;;
45136;SDS011;30894;51.740;19.498;2023-07-24T11:41:14;4.88;;;1.88;;
45136;SDS011;30894;51.740;19.498;2023-07-24T11:43:49;2.20;;;1.52;;
45136;SDS011;30894;51.740;19.498;2023-07-24T11:46:22;3.75;;;1.83;;
45136;SDS011;30894;51.740;19.498;2023-07-24T11:48:57;2.88;;;2.03;;
45136;SDS011;30894;51.740;19.498;2023-07-24T11:51:26;3.80;;;1.92;;
45136;SDS011;30894;51.740;19.498;2023-07-24T11:56:51;3.22;;;1.58;;
45136;SDS011;30894;51.740;19.498;2023-07-24T11:59:19;2.97;;;2.30;;
45136;SDS011;30894;51.740;19.498;2023-07-24T12:01:46;3.50;;;1.80;;
45136;SDS011;30894;51.740;19.498;2023-07-24T12:04:15;2.10;;;1.70;;
45136;SDS011;30894;51.740;19.498;2023-07-24T12:06:41;4.60;;;2.13;;
45136;SDS011;30894;51.740;19.498;2023-07-24T12:09:11;8.98;;;2.55;;
45136;SDS011;30894;51.740;19.498;2023-07-24T12:11:44;2.90;;;2.00;;
45136;SDS011;30894;51.740;19.498;2023-07-24T12:14:20;4.93;;;2.08;;
45136;SDS011;30894;51.740;19.498;2023-07-24T12:16:46;5.30;;;2.15;;
45136;SDS011;30894;51.740;19.498;2023-07-24T12:19:16;3.50;;;2.10;;
45136;SDS011;30894;51.740;19.498;2023-07-24T12:21:43;2.65;;;1.80;;
45136;SDS011;30894;51.740;19.498;2023-07-24T12:24:11;4.18;;;2.20;;
45136;SDS011;30894;51.740;19.498;2023-07-24T12:26:37;4.65;;;2.30;;
45136;SDS011;30894;51.740;19.498;2023-07-24T12:29:03;3.45;;;2.10;;
45136;SDS011;30894;51.740;19.498;2023-07-24T12:31:29;2.67;;;1.95;;
45136;SDS011;30894;51.740;19.498;2023-07-24T12:34:02;7.57;;;2.63;;
45136;SDS011;30894;51.740;19.498;2023-07-24T12:36:29;4.57;;;2.30;;
45136;SDS011;30894;51.740;19.498;2023-07-24T12:38:55;4.55;;;2.53;;
45136;SDS011;30894;51.740;19.498;2023-07-24T12:41:24;4.88;;;2.10;;
45136;SDS011;30894;51.740;19.498;2023-07-24T12:44:06;2.90;;;1.95;;
45136;SDS011;30894;51.740;19.498;2023-07-24T12:46:32;4.47;;;2.75;;
45136;SDS011;30894;51.740;19.498;2023-07-24T12:48:59;5.50;;;2.38;;
45136;SDS011;30894;51.740;19.498;2023-07-24T12:51:25;5.55;;;2.10;;
45136;SDS011;30894;51.740;19.498;2023-07-24T12:53:51;3.58;;;2.20;;
45136;SDS011;30894;51.740;19.498;2023-07-24T12:56:17;4.10;;;2.22;;
45136;SDS011;30894;51.740;19.498;2023-07-24T12:58:53;4.55;;;2.13;;
45136;SDS011;30894;51.740;19.498;2023-07-24T13:01:20;5.00;;;2.70;;
45136;SDS011;30894;51.740;19.498;2023-07-24T13:03:48;5.50;;;2.13;;
45136;SDS011;30894;51.740;19.498;2023-07-24T13:06:36;5.40;;;2.38;;
45136;SDS011;30894;51.740;19.498;2023-07-24T13:09:17;5.70;;;2.80;;
45136;SDS011;30894;51.740;19.498;2023-07-24T13:11:49;4.73;;;2.47;;
45136;SDS011;30894;51.740;19.498;2023-07-24T13:14:17;3.97;;;2.40;;
45136;SDS011;30894;51.740;19.498;2023-07-24T13:16:44;4.38;;;2.55;;
45136;SDS011;30894;51.740;19.498;2023-07-24T13:19:11;6.95;;;2.20;;
45136;SDS011;30894;51.740;19.498;2023-07-24T13:21:38;3.95;;;2.63;;
45136;SDS011;30894;51.740;19.498;2023-07-24T13:24:11;3.30;;;2.13;;
45136;SDS011;30894;51.740;19.498;2023-07-24T13:26:38;4.90;;;3.03;;
45136;SDS011;30894;51.740;19.498;2023-07-24T13:29:11;5.13;;;2.85;;
45136;SDS011;30894;51.740;19.498;2023-07-24T13:31:40;4.05;;;2.40;;
45136;SDS011;30894;51.740;19.498;2023-07-24T13:34:07;3.58;;;2.20;;
45136;SDS011;30894;51.740;19.498;2023-07-24T13:36:36;3.25;;;1.90;;
45136;SDS011;30894;51.740;19.498;2023-07-24T13:39:05;5.05;;;2.28;;
45136;SDS011;30894;51.740;19.498;2023-07-24T13:41:31;5.32;;;2.38;;
45136;SDS011;30894;51.740;19.498;2023-07-24T13:43:58;4.93;;;2.33;;
45136;SDS011;30894;51.740;19.498;2023-07-24T13:46:26;4.50;;;2.72;;
45136;SDS011;30894;51.740;19.498;2023-07-24T13:48:56;6.07;;;2.65;;
45136;SDS011;30894;51.740;19.498;2023-07-24T13:51:22;4.55;;;2.55;;
45136;SDS011;30894;51.740;19.498;2023-07-24T13:53:48;3.88;;;2.40;;
45136;SDS011;30894;51.740;19.498;2023-07-24T13:56:17;4.53;;;2.20;;
45136;SDS011;30894;51.740;19.498;2023-07-24T13:58:49;4.70;;;2.00;;
45136;SDS011;30894;51.740;19.498;2023-07-24T14:01:17;3.22;;;1.85;;
45136;SDS011;30894;51.740;19.498;2023-07-24T14:03:47;3.97;;;2.35;;
45136;SDS011;30894;51.740;19.498;2023-07-24T14:06:13;5.78;;;2.35;;
45136;SDS011;30894;51.740;19.498;2023-07-24T14:08:40;3.78;;;2.33;;
45136;SDS011;30894;51.740;19.498;2023-07-24T14:11:06;7.28;;;2.50;;
45136;SDS011;30894;51.740;19.498;2023-07-24T14:13:34;4.38;;;2.65;;
45136;SDS011;30894;51.740;19.498;2023-07-24T14:16:05;4.80;;;2.33;;
45136;SDS011;30894;51.740;19.498;2023-07-24T14:18:33;6.80;;;2.92;;
45136;SDS011;30894;51.740;19.498;2023-07-24T14:21:00;5.10;;;2.50;;
45136;SDS011;30894;51.740;19.498;2023-07-24T14:23:27;5.47;;;2.90;;
45136;SDS011;30894;51.740;19.498;2023-07-24T14:25:54;7.15;;;2.90;;
45136;SDS011;30894;51.740;19.498;2023-07-24T14:28:24;4.50;;;2.35;;
45136;SDS011;30894;51.740;19.498;2023-07-24T14:30:50;6.20;;;2.42;;
45136;SDS011;30894;51.740;19.498;2023-07-24T14:33:17;5.45;;;3.20;;
45136;SDS011;30894;51.740;19.498;2023-07-24T14:35:53;6.38;;;2.90;;
45136;SDS011;30894;51.740;19.498;2023-07-24T14:38:21;5.68;;;3.00;;
45136;SDS011;30894;51.740;19.498;2023-07-24T14:40:47;4.82;;;2.78;;
45136;SDS011;30894;51.740;19.498;2023-07-24T14:43:14;4.65;;;3.30;;
45136;SDS011;30894;51.740;19.498;2023-07-24T14:45:40;4.65;;;2.92;;
45136;SDS011;30894;51.740;19.498;2023-07-24T14:48:07;6.50;;;2.75;;